createdAt,value
2023-09-02T00:00:54.600Z,1179.8
2023-09-02T00:02:38.310Z,1175
2023-09-02T00:04:22.021Z,1172.3
2023-09-02T00:06:05.715Z,1170.1
2023-09-02T00:07:49.420Z,1169.6
2023-09-02T00:09:33.110Z,1166.1
2023-09-02T00:11:16.809Z,1165.5
2023-09-02T00:13:00.539Z,1160.3
2023-09-02T00:14:44.227Z,1157.4
2023-09-02T00:16:27.921Z,1154.7
2023-09-02T00:18:11.632Z,1153.2
2023-09-02T00:19:55.333Z,1151.6
2023-09-02T00:21:39.033Z,1147.8
2023-09-02T00:23:22.809Z,1143
2023-09-02T00:25:06.443Z,1138.5
2023-09-02T00:26:50.130Z,1131.3
2023-09-02T00:28:33.844Z,1129
2023-09-02T00:30:17.536Z,1127.9
2023-09-02T00:32:01.239Z,1126.7
2023-09-02T00:33:44.961Z,1126.1
2023-09-02T00:35:28.656Z,1127.1
2023-09-02T00:37:12.408Z,1127.3
2023-09-02T00:38:56.057Z,1124
2023-09-02T00:40:39.747Z,1121.6
2023-09-02T00:42:23.452Z,1120.5
2023-09-02T00:44:07.150Z,1115.9
2023-09-02T00:45:50.868Z,1112.4
2023-09-02T00:47:34.554Z,1109.4
2023-09-02T00:49:18.257Z,1109.4
2023-09-02T00:51:01.977Z,1106.6
2023-09-02T00:52:45.664Z,1105.7
2023-09-02T00:54:29.379Z,1105.1
2023-09-02T00:56:13.084Z,1103.7
2023-09-02T00:57:56.776Z,1102.8
2023-09-02T00:59:40.487Z,1105.1
2023-09-02T01:03:07.876Z,1099.8
2023-09-02T01:04:51.593Z,1094.3
2023-09-02T01:06:35.308Z,1090.6
2023-09-02T01:08:18.998Z,1090.9
2023-09-02T01:10:02.691Z,1090.1
2023-09-02T01:11:46.405Z,1089.9
2023-09-02T01:13:30.101Z,1086.7
2023-09-02T01:15:13.842Z,1084.3
2023-09-02T01:16:57.509Z,1085.6
2023-09-02T01:18:41.224Z,1083.1
2023-09-02T01:20:24.956Z,1080.8
2023-09-02T01:22:08.606Z,1078.4
2023-09-02T01:23:52.321Z,1075.9
2023-09-02T01:25:36.030Z,1072.4
2023-09-02T01:27:19.708Z,1066.2
2023-09-02T01:29:03.417Z,1062.2
2023-09-02T01:30:47.108Z,1063.6
2023-09-02T01:32:30.825Z,1068.3
2023-09-02T01:34:14.521Z,1071.6
2023-09-02T01:35:58.239Z,1070.1
2023-09-02T01:37:41.944Z,1064.7
2023-09-02T01:39:25.635Z,1062.7
2023-09-02T01:41:09.336Z,1057.7
2023-09-02T01:42:53.044Z,1055
2023-09-02T01:44:36.806Z,1052.3
2023-09-02T01:46:20.453Z,1050
2023-09-02T01:48:04.139Z,1045.8
2023-09-02T01:49:47.880Z,1042.4
2023-09-02T01:51:31.560Z,1039.2
2023-09-02T01:53:15.251Z,1035.1
2023-09-02T01:54:58.953Z,1035
2023-09-02T01:56:42.661Z,1034.4
2023-09-02T01:58:26.357Z,1035.7
2023-09-02T02:00:10.059Z,1034.9
2023-09-02T02:01:53.816Z,1032.1
2023-09-02T02:03:37.447Z,1029.4
2023-09-02T02:05:21.166Z,1027.7
2023-09-02T02:07:04.872Z,1023
2023-09-02T02:08:48.576Z,1021
2023-09-02T02:10:32.271Z,1016.9
2023-09-02T02:12:15.975Z,1012.7
2023-09-02T02:13:59.689Z,1006.3
2023-09-02T02:15:43.395Z,1000.4
2023-09-02T02:17:27.161Z,1001.3
2023-09-02T02:19:10.796Z,1002.8
2023-09-02T02:20:54.490Z,1003.2
2023-09-02T02:22:38.210Z,1009.5
2023-09-02T02:24:21.886Z,1009
2023-09-02T02:26:05.591Z,1009.9
2023-09-02T02:27:49.290Z,1004.1
2023-09-02T02:29:33.020Z,999.8
2023-09-02T02:31:16.694Z,997.2
2023-09-02T02:33:00.399Z,998
2023-09-02T02:34:44.114Z,1000.1
2023-09-02T02:36:27.835Z,1000
2023-09-02T02:38:11.499Z,996.2
2023-09-02T02:39:55.195Z,993.3
2023-09-02T02:41:38.901Z,991
2023-09-02T02:43:22.610Z,992
2023-09-02T02:45:06.313Z,987.3
2023-09-02T02:46:50.024Z,985.5
2023-09-02T02:48:33.701Z,983.3
2023-09-02T02:50:17.419Z,981.7
2023-09-02T02:52:01.107Z,979
2023-09-02T02:53:44.809Z,978.5
2023-09-02T02:55:28.515Z,980.9
2023-09-02T02:57:12.234Z,981.6
2023-09-02T02:58:55.938Z,982.4
2023-09-02T03:00:39.625Z,982.3
2023-09-02T03:02:23.335Z,978.4
2023-09-02T03:04:07.058Z,979.6
2023-09-02T03:05:50.742Z,983
2023-09-02T03:07:34.438Z,979.9
2023-09-02T03:09:18.147Z,975
2023-09-02T03:11:01.844Z,970.8
2023-09-02T03:12:45.547Z,966.5
2023-09-02T03:14:29.243Z,963.9
2023-09-02T03:16:12.951Z,965.6
2023-09-02T03:17:56.665Z,968.2
2023-09-02T03:19:40.367Z,967.7
2023-09-02T03:21:24.043Z,969.4
2023-09-02T03:23:07.752Z,966.8
2023-09-02T03:24:51.464Z,966.3
2023-09-02T03:26:35.144Z,966
2023-09-02T03:28:18.849Z,962.7
2023-09-02T03:30:02.594Z,960.5
2023-09-02T03:31:46.279Z,954.1
2023-09-02T03:33:29.963Z,950
2023-09-02T03:35:13.678Z,944.8
2023-09-02T03:36:57.375Z,944.7
2023-09-02T03:38:41.074Z,947.1
2023-09-02T03:40:24.780Z,947.9
2023-09-02T03:42:08.466Z,945.8
2023-09-02T03:43:52.157Z,942.3
2023-09-02T03:45:35.870Z,940.1
2023-09-02T03:47:19.571Z,937.9
2023-09-02T03:49:03.330Z,934.6
2023-09-02T03:50:46.982Z,929.7
2023-09-02T03:52:30.682Z,928.2
2023-09-02T03:54:14.402Z,928.1
2023-09-02T03:55:58.082Z,931.9
2023-09-02T03:57:41.778Z,933
2023-09-02T03:59:25.485Z,936.1
2023-09-02T04:01:09.180Z,934.4
2023-09-02T04:02:52.929Z,934.3
2023-09-02T04:04:36.593Z,928.8
2023-09-02T04:06:20.297Z,926.8
2023-09-02T04:08:03.995Z,926.1
2023-09-02T04:09:47.707Z,927.5
2023-09-02T04:11:31.399Z,925.7
2023-09-02T04:13:15.113Z,920.2
2023-09-02T04:14:58.819Z,918.4
2023-09-02T04:16:42.516Z,917.2
2023-09-02T04:18:26.233Z,917.8
2023-09-02T04:20:09.911Z,914.8
2023-09-02T04:21:53.623Z,917.2
2023-09-02T04:23:37.333Z,917.8
2023-09-02T04:25:21.021Z,918
2023-09-02T04:27:04.720Z,917.3
2023-09-02T04:28:48.427Z,918.5
2023-09-02T04:30:32.144Z,916.7
2023-09-02T04:32:15.842Z,915.2
2023-09-02T04:33:59.514Z,910.7
2023-09-02T04:35:43.234Z,907.9
2023-09-02T04:37:26.929Z,903.3
2023-09-02T04:39:10.644Z,901.9
2023-09-02T04:40:54.342Z,902.7
2023-09-02T04:42:38.038Z,896.5
2023-09-02T04:44:21.743Z,891.6
2023-09-02T04:46:05.464Z,893
2023-09-02T04:47:49.156Z,894.4
2023-09-02T04:49:32.843Z,893.4
2023-09-02T04:51:16.553Z,891.6
2023-09-02T04:53:00.257Z,892.1
2023-09-02T04:54:43.976Z,888.7
2023-09-02T04:56:27.665Z,885.8
2023-09-02T04:58:11.373Z,885.8
2023-09-02T04:59:55.102Z,887.9
2023-09-02T05:01:38.765Z,889.4
2023-09-02T05:03:22.482Z,890.9
2023-09-02T05:05:06.168Z,890.6
2023-09-02T05:06:49.865Z,886.4
2023-09-02T05:08:33.580Z,886.7
2023-09-02T05:10:17.291Z,887.2
2023-09-02T05:12:00.979Z,887.9
2023-09-02T05:13:44.707Z,883.9
2023-09-02T05:15:28.391Z,886
2023-09-02T05:17:12.161Z,885.6
2023-09-02T05:18:55.785Z,885.4
2023-09-02T05:20:39.480Z,883.3
2023-09-02T05:22:23.190Z,882.4
2023-09-02T05:24:06.888Z,881.2
2023-09-02T05:25:50.585Z,879.4
2023-09-02T05:27:34.295Z,880.9
2023-09-02T05:29:18.002Z,878.7
2023-09-02T05:31:01.708Z,876.8
2023-09-02T05:32:45.413Z,875.8
2023-09-02T05:34:29.120Z,872.2
2023-09-02T05:36:12.816Z,869.1
2023-09-02T05:37:56.524Z,869.4
2023-09-02T05:39:40.262Z,869.5
2023-09-02T05:41:23.918Z,865.9
2023-09-02T05:43:07.619Z,864.1
2023-09-02T05:44:51.344Z,861.1
2023-09-02T05:46:35.032Z,859.3
2023-09-02T05:48:18.709Z,858.6
2023-09-02T05:50:02.422Z,859.8
2023-09-02T05:51:46.139Z,859.3
2023-09-02T05:53:29.831Z,855.2
2023-09-02T05:55:13.527Z,854.5
2023-09-02T05:56:57.226Z,853.7
2023-09-02T05:58:40.933Z,850.7
2023-09-02T06:00:24.648Z,850.2
2023-09-02T06:02:08.333Z,847.7
2023-09-02T06:03:52.033Z,843.9
2023-09-02T06:05:35.761Z,844.6
2023-09-02T06:07:19.437Z,844.8
2023-09-02T06:09:03.726Z,847.1
2023-09-02T06:10:46.838Z,849.8
2023-09-02T06:14:14.243Z,848.4
2023-09-02T06:15:57.961Z,849.7
2023-09-02T06:17:41.656Z,846.7
2023-09-02T06:19:25.345Z,846.1
2023-09-02T06:21:09.059Z,844.2
2023-09-02T06:22:52.764Z,845.3
2023-09-02T06:24:36.450Z,845.1
2023-09-02T06:26:20.152Z,846
2023-09-02T06:28:03.857Z,847.1
2023-09-02T06:29:47.554Z,845.9
2023-09-02T06:31:31.265Z,842.9
2023-09-02T06:33:14.951Z,841.9
2023-09-02T06:34:58.669Z,841.7
2023-09-02T06:36:42.369Z,840.6
2023-09-02T06:38:26.074Z,835.6
2023-09-02T06:40:09.788Z,825.3
2023-09-02T06:41:53.477Z,815.9
2023-09-02T06:43:37.203Z,806.4
2023-09-02T06:45:20.886Z,793.2
2023-09-02T06:47:04.593Z,780.1
2023-09-02T06:48:48.339Z,771.2
2023-09-02T06:50:32.018Z,767.7
2023-09-02T06:52:15.725Z,766
2023-09-02T06:53:59.385Z,764.6
2023-09-02T06:55:43.094Z,763.6
2023-09-02T06:57:26.805Z,760.5
2023-09-02T06:59:10.512Z,747.7
2023-09-02T07:00:54.201Z,728.1
2023-09-02T07:02:37.901Z,702.9
2023-09-02T07:04:21.607Z,684.4
2023-09-02T07:06:05.306Z,665.7
2023-09-02T07:07:49.070Z,649.8
2023-09-02T07:09:32.715Z,620.5
2023-09-02T07:11:16.413Z,600.5
2023-09-02T07:13:00.139Z,591.8
2023-09-02T07:14:43.833Z,586.2
2023-09-02T07:16:27.534Z,580.3
2023-09-02T07:18:11.228Z,570.2
2023-09-02T07:19:54.940Z,559.4
2023-09-02T07:21:38.751Z,555
2023-09-02T07:23:22.339Z,546.2
2023-09-02T07:25:06.038Z,537.9
2023-09-02T07:26:49.757Z,534.7
2023-09-02T07:28:33.459Z,529.8
2023-09-02T07:30:17.161Z,526.2
2023-09-02T07:32:00.835Z,521.8
2023-09-02T07:33:44.547Z,519.2
2023-09-02T07:35:28.246Z,518.4
2023-09-02T07:37:12.037Z,519.3
2023-09-02T07:38:55.645Z,521.6
2023-09-02T07:40:39.354Z,520.8
2023-09-02T07:42:23.058Z,521.7
2023-09-02T07:44:06.766Z,524
2023-09-02T07:45:50.454Z,533.3
2023-09-02T07:47:34.172Z,536.1
2023-09-02T07:49:17.917Z,538.1
2023-09-02T07:51:01.601Z,542.8
2023-09-02T07:52:45.347Z,545.7
2023-09-02T07:54:29.004Z,549.5
2023-09-02T07:56:12.687Z,548.9
2023-09-02T07:57:56.397Z,551.7
2023-09-02T07:59:40.128Z,557.6
2023-09-02T08:01:23.799Z,561.4
2023-09-02T08:03:07.490Z,562.9
2023-09-02T08:04:51.196Z,565.7
2023-09-02T08:06:34.876Z,565.8
2023-09-02T08:08:18.585Z,566.7
2023-09-02T08:10:02.315Z,563.9
2023-09-02T08:11:45.991Z,560.3
2023-09-02T08:13:29.695Z,558.5
2023-09-02T08:15:13.395Z,556.6
2023-09-02T08:16:57.107Z,559.3
2023-09-02T08:20:24.485Z,575.9
2023-09-02T08:22:08.217Z,581
2023-09-02T08:23:51.898Z,586.4
2023-09-02T08:25:35.621Z,590.5
2023-09-02T08:27:19.304Z,592.2
2023-09-02T08:29:02.999Z,598.9
2023-09-02T08:30:46.724Z,608.5
2023-09-02T08:32:30.420Z,609.4
2023-09-02T08:34:14.105Z,608.7
2023-09-02T08:35:57.816Z,601.6
2023-09-02T08:37:41.513Z,597.3
2023-09-02T08:39:25.233Z,583.1
2023-09-02T08:41:08.911Z,555.8
2023-09-02T08:42:52.622Z,546.2
2023-09-02T08:44:36.311Z,537.5
2023-09-02T08:46:20.035Z,532.6
2023-09-02T08:48:03.713Z,529.3
2023-09-02T08:49:47.409Z,524.6
2023-09-02T08:51:31.127Z,519.6
2023-09-02T08:53:14.825Z,517.9
2023-09-02T08:54:58.527Z,514.2
2023-09-02T08:56:42.233Z,512.5
2023-09-02T08:58:25.929Z,510.6
2023-09-02T09:00:09.649Z,510.2
2023-09-02T09:01:53.346Z,504
2023-09-02T09:03:37.088Z,502
2023-09-02T09:05:20.843Z,500.3
2023-09-02T09:07:04.490Z,500.9
2023-09-02T09:08:48.169Z,501.8
2023-09-02T09:10:31.860Z,501
2023-09-02T09:12:15.569Z,508.7
2023-09-02T09:13:59.256Z,522.8
2023-09-02T09:15:42.968Z,530.7
2023-09-02T09:17:26.675Z,535.1
2023-09-02T09:19:10.383Z,536.6
2023-09-02T09:20:54.080Z,531.8
2023-09-02T09:22:37.771Z,526.2
2023-09-02T09:24:21.492Z,525
2023-09-02T09:26:05.183Z,522.1
2023-09-02T09:27:48.937Z,523.4
2023-09-02T09:29:32.570Z,526.2
2023-09-02T09:31:16.282Z,523.7
2023-09-02T09:33:02.323Z,519.7
2023-09-02T09:34:43.683Z,517.2
2023-09-02T09:36:27.375Z,518.3
2023-09-02T09:38:11.073Z,515.4
2023-09-02T09:39:54.786Z,510.3
2023-09-02T09:41:38.481Z,508.8
2023-09-02T09:43:22.194Z,514.7
2023-09-02T09:45:05.877Z,519.8
2023-09-02T09:46:49.581Z,521.9
2023-09-02T09:48:33.292Z,522.5
2023-09-02T09:50:16.984Z,520.4
2023-09-02T09:53:44.387Z,514.9
2023-09-02T09:55:28.097Z,512.5
2023-09-02T09:57:11.806Z,508.8
2023-09-02T09:58:55.589Z,505.2
2023-09-02T10:00:39.265Z,507.9
2023-09-02T10:02:22.916Z,509.4
2023-09-02T10:04:06.620Z,509.1
2023-09-02T10:05:50.319Z,512.6
2023-09-02T10:07:34.050Z,510.5
2023-09-02T10:09:17.725Z,505.7
2023-09-02T10:11:01.578Z,494
2023-09-02T10:12:45.134Z,489.7
2023-09-02T10:14:28.822Z,483.8
2023-09-02T10:16:12.536Z,481.3
2023-09-02T10:17:56.231Z,482.8
2023-09-02T10:19:39.977Z,484.3
2023-09-02T10:21:23.634Z,482.8
2023-09-02T10:23:07.349Z,481.7
2023-09-02T10:24:51.047Z,480.6
2023-09-02T10:26:34.736Z,479.7
2023-09-02T10:28:18.481Z,480.1
2023-09-02T10:30:02.158Z,479.3
2023-09-02T10:31:45.846Z,472.8
2023-09-02T10:33:29.563Z,471.4
2023-09-02T10:35:13.294Z,472
2023-09-02T10:36:57.004Z,471.4
2023-09-02T10:38:40.772Z,468.8
2023-09-02T10:40:24.365Z,470.7
2023-09-02T10:42:08.071Z,472
2023-09-02T10:43:51.785Z,473.5
2023-09-02T10:45:35.460Z,472.2
2023-09-02T10:47:19.475Z,470.8
2023-09-02T10:49:02.895Z,470.8
2023-09-02T10:50:46.575Z,474.9
2023-09-02T10:52:30.293Z,480.7
2023-09-02T10:54:13.973Z,482.8
2023-09-02T10:55:57.701Z,484.9
2023-09-02T10:57:41.385Z,491
2023-09-02T10:59:25.100Z,499.6
2023-09-02T11:01:08.792Z,505.3
2023-09-02T11:02:52.494Z,513.3
2023-09-02T11:04:36.231Z,524.1
2023-09-02T11:06:19.892Z,529
2023-09-02T11:08:03.611Z,532.2
2023-09-02T11:09:47.302Z,528.9
2023-09-02T11:11:31.011Z,526.4
2023-09-02T11:13:14.721Z,525.7
2023-09-02T11:14:58.422Z,525
2023-09-02T11:16:42.122Z,523.4
2023-09-02T11:18:25.812Z,522.3
2023-09-02T11:20:09.518Z,519.7
2023-09-02T11:21:53.234Z,514.3
2023-09-02T11:23:36.938Z,511.4
2023-09-02T11:25:20.623Z,509.3
2023-09-02T11:27:04.329Z,507.6
2023-09-02T11:28:48.024Z,507
2023-09-02T11:30:31.733Z,506.9
2023-09-02T11:32:15.425Z,508
2023-09-02T11:33:59.135Z,508.8
2023-09-02T11:35:42.833Z,508.7
2023-09-02T11:37:26.544Z,506.7
2023-09-02T11:39:10.240Z,504.6
2023-09-02T11:40:53.941Z,504.1
2023-09-02T11:42:37.654Z,500.8
2023-09-02T11:44:21.353Z,495.3
2023-09-02T11:46:05.057Z,495.4
2023-09-02T11:47:48.756Z,496.1
2023-09-02T11:49:32.451Z,494.5
2023-09-02T11:51:16.233Z,491.5
2023-09-02T11:52:59.930Z,490.8
2023-09-02T11:54:43.566Z,489
2023-09-02T11:56:27.272Z,488.3
2023-09-02T11:58:10.973Z,487.7
2023-09-02T11:59:54.661Z,491.5
2023-09-02T12:01:38.360Z,494.1
2023-09-02T12:03:22.070Z,495.6
2023-09-02T12:05:05.786Z,495.8
2023-09-02T12:06:49.477Z,499.2
2023-09-02T12:08:33.174Z,506.9
2023-09-02T12:10:16.882Z,512.1
2023-09-02T12:12:00.572Z,517.2
2023-09-02T12:13:44.275Z,523.9
2023-09-02T12:15:27.993Z,527
2023-09-02T12:17:11.713Z,532.4
2023-09-02T12:18:55.401Z,534.1
2023-09-02T12:20:39.079Z,533.1
2023-09-02T12:22:22.815Z,528.2
2023-09-02T12:24:06.477Z,526
2023-09-02T12:25:50.183Z,522
2023-09-02T12:27:33.868Z,516.9
2023-09-02T12:29:17.560Z,511.2
2023-09-02T12:31:01.280Z,507.9
2023-09-02T12:32:44.978Z,500.6
2023-09-02T12:34:28.657Z,495.5
2023-09-02T12:36:12.368Z,492.5
2023-09-02T12:37:56.061Z,486.3
2023-09-02T12:39:39.781Z,484.3
2023-09-02T12:41:23.452Z,484.9
2023-09-02T12:43:07.276Z,481.4
2023-09-02T12:44:50.865Z,479.8
2023-09-02T12:46:34.577Z,476.7
2023-09-02T12:48:18.264Z,476.1
2023-09-02T12:50:01.957Z,472.9
2023-09-02T12:51:45.684Z,471.4
2023-09-02T12:53:29.385Z,468
2023-09-02T12:55:13.061Z,468.8
2023-09-02T12:56:56.768Z,470.5
2023-09-02T12:58:40.463Z,471.3
2023-09-02T13:00:24.185Z,469.3
2023-09-02T13:02:07.876Z,466.5
2023-09-02T13:03:51.572Z,465.5
2023-09-02T13:05:35.286Z,472.1
2023-09-02T13:07:18.976Z,470.9
2023-09-02T13:09:03.759Z,467.3
2023-09-02T13:10:46.367Z,462.3
2023-09-02T13:12:30.080Z,459.6
2023-09-02T13:14:13.782Z,457.3
2023-09-02T13:15:57.469Z,453
2023-09-02T13:17:41.172Z,452.1
2023-09-02T13:19:24.867Z,449.5
2023-09-02T13:21:08.575Z,448.3
2023-09-02T13:22:52.312Z,449
2023-09-02T13:24:35.995Z,451.9
2023-09-02T13:26:19.701Z,451.2
2023-09-02T13:28:03.379Z,445.5
2023-09-02T13:29:47.071Z,442.8
2023-09-02T13:31:30.792Z,436.1
2023-09-02T13:33:14.501Z,436
2023-09-02T13:34:58.195Z,438.5
2023-09-02T13:36:41.898Z,438.3
2023-09-02T13:38:25.588Z,433.1
2023-09-02T13:40:09.309Z,426.8
2023-09-02T13:41:53.016Z,423.9
2023-09-02T13:43:36.695Z,423.7
2023-09-02T13:45:20.406Z,423.4
2023-09-02T13:47:04.115Z,422.8
2023-09-02T13:48:47.819Z,425
2023-09-02T13:50:31.515Z,423.6
2023-09-02T13:52:15.215Z,422
2023-09-02T13:53:58.909Z,422.1
2023-09-02T13:55:42.642Z,424.3
2023-09-02T13:57:26.330Z,425.9
2023-09-02T13:59:10.024Z,428.3
2023-09-02T14:00:53.724Z,431.7
2023-09-02T14:02:37.432Z,432.2
2023-09-02T14:04:21.144Z,430.1
2023-09-02T14:06:04.843Z,432.6
2023-09-02T14:07:48.564Z,435.4
2023-09-02T14:09:32.244Z,437.7
2023-09-02T14:11:15.943Z,438.9
2023-09-02T14:12:59.657Z,444.1
2023-09-02T14:14:43.345Z,446.7
2023-09-02T14:16:27.047Z,448.8
2023-09-02T14:18:10.767Z,449.7
2023-09-02T14:19:54.462Z,450.6
2023-09-02T14:21:38.167Z,455
2023-09-02T14:23:21.870Z,456
2023-09-02T14:25:05.572Z,457.6
2023-09-02T14:26:49.263Z,457.5
2023-09-02T14:28:32.968Z,458.3
2023-09-02T14:30:16.683Z,460.5
2023-09-02T14:32:00.367Z,464.7
2023-09-02T14:33:44.058Z,462.4
2023-09-02T14:35:27.767Z,462.4
2023-09-02T14:37:11.470Z,460.4
2023-09-02T14:38:55.171Z,462.6
2023-09-02T14:40:38.880Z,462.9
2023-09-02T14:42:22.568Z,463.5
2023-09-02T14:44:06.281Z,466.1
2023-09-02T14:45:49.981Z,465.1
2023-09-02T14:47:33.671Z,466.3
2023-09-02T14:49:17.362Z,467.3
2023-09-02T14:51:01.073Z,464.2
2023-09-02T14:52:44.785Z,463.6
2023-09-02T14:54:28.478Z,464.3
2023-09-02T14:56:12.174Z,466.7
2023-09-02T14:57:55.869Z,467.4
2023-09-02T14:59:39.612Z,466.8
2023-09-02T15:01:23.290Z,465.9
2023-09-02T15:03:06.981Z,467.2
2023-09-02T15:04:50.731Z,469.6
2023-09-02T15:06:34.369Z,472
2023-09-02T15:08:18.056Z,472
2023-09-02T15:10:01.778Z,474
2023-09-02T15:11:45.481Z,477.3
2023-09-02T15:13:29.182Z,477
2023-09-02T15:15:12.880Z,477.8
2023-09-02T15:16:56.572Z,480.7
2023-09-02T15:18:40.279Z,485.9
2023-09-02T15:20:23.983Z,489.5
2023-09-02T15:22:07.791Z,492.8
2023-09-02T15:23:51.386Z,494.7
2023-09-02T15:25:35.088Z,497.8
2023-09-02T15:27:18.793Z,502
2023-09-02T15:29:02.495Z,500.1
2023-09-02T15:30:46.224Z,500.5
2023-09-02T15:32:29.906Z,497.8
2023-09-02T15:34:13.615Z,497.6
2023-09-02T15:35:57.322Z,491.8
2023-09-02T15:37:41.020Z,481
2023-09-02T15:39:24.707Z,475.5
2023-09-02T15:41:08.425Z,472.9
2023-09-02T15:42:52.123Z,471.6
2023-09-02T15:44:35.819Z,470
2023-09-02T15:46:19.531Z,475.1
2023-09-02T15:48:03.227Z,480.7
2023-09-02T15:49:46.939Z,484.8
2023-09-02T15:51:30.648Z,489.4
2023-09-02T15:53:14.325Z,490
2023-09-02T15:54:58.021Z,488.4
2023-09-02T15:56:41.737Z,487.4
2023-09-02T15:58:25.426Z,482
2023-09-02T16:00:09.138Z,474.8
2023-09-02T16:01:52.826Z,471.2
2023-09-02T16:03:36.538Z,466.7
2023-09-02T16:05:20.230Z,463.8
2023-09-02T16:07:03.948Z,459.9
2023-09-02T16:08:47.640Z,454.3
2023-09-02T16:10:31.352Z,450.1
2023-09-02T16:12:15.022Z,446.3
2023-09-02T16:13:58.729Z,443.8
2023-09-02T16:15:42.444Z,437.9
2023-09-02T16:17:26.146Z,434.3
2023-09-02T16:19:09.821Z,430.8
2023-09-02T16:20:53.536Z,425.7
2023-09-02T16:22:37.249Z,425.6
2023-09-02T16:24:20.935Z,426.6
2023-09-02T16:26:04.638Z,428
2023-09-02T16:27:48.340Z,427.4
2023-09-02T16:29:32.049Z,426.5
2023-09-02T16:31:15.738Z,425.4
2023-09-02T16:32:59.436Z,424.2
2023-09-02T16:34:43.119Z,420.7
2023-09-02T16:36:26.836Z,421
2023-09-02T16:38:10.533Z,421
2023-09-02T16:39:54.235Z,425.5
2023-09-02T16:41:37.935Z,431
2023-09-02T16:43:21.644Z,437.1
2023-09-02T16:45:05.348Z,440.5
2023-09-02T16:46:49.034Z,445.6
2023-09-02T16:48:32.737Z,448.4
2023-09-02T16:50:16.469Z,450.7
2023-09-02T16:52:00.156Z,452.3
2023-09-02T16:53:43.845Z,457.4
2023-09-02T16:55:27.535Z,465.7
2023-09-02T16:57:11.249Z,469.8
2023-09-02T16:58:54.956Z,468.4
2023-09-02T17:00:38.648Z,468.4
2023-09-02T17:02:22.358Z,470.3
2023-09-02T17:04:06.063Z,473.2
2023-09-02T17:05:49.759Z,478.1
2023-09-02T17:07:33.455Z,482
2023-09-02T17:09:17.136Z,483.9
2023-09-02T17:11:00.852Z,484.5
2023-09-02T17:12:44.600Z,482.7
2023-09-02T17:14:28.250Z,481.6
2023-09-02T17:16:11.951Z,482
2023-09-02T17:17:55.648Z,482.4
2023-09-02T17:19:39.349Z,483.5
2023-09-02T17:21:23.055Z,486.4
2023-09-02T17:23:06.752Z,483.5
2023-09-02T17:24:50.443Z,485.1
2023-09-02T17:26:34.221Z,481.3
2023-09-02T17:28:17.852Z,475.2
2023-09-02T17:30:01.549Z,469.6
2023-09-02T17:31:45.249Z,464
2023-09-02T17:33:28.952Z,458.9
2023-09-02T17:35:12.651Z,459
2023-09-02T17:36:56.350Z,459.7
2023-09-02T17:38:40.131Z,458.7
2023-09-02T17:40:23.773Z,456.8
2023-09-02T17:42:07.519Z,452.8
2023-09-02T17:43:51.275Z,450.6
2023-09-02T17:45:34.878Z,450.7
2023-09-02T17:47:18.607Z,449.2
2023-09-02T17:49:02.273Z,447.6
2023-09-02T17:50:45.984Z,447.7
2023-09-02T17:52:29.703Z,447.1
2023-09-02T17:54:13.388Z,445.3
2023-09-02T17:55:57.081Z,445.7
2023-09-02T17:57:40.797Z,446.8
2023-09-02T17:59:24.495Z,446.8
2023-09-02T18:01:08.184Z,448.4
2023-09-02T18:02:51.893Z,450.4
2023-09-02T18:04:35.620Z,454.6
2023-09-02T18:06:19.313Z,457.3
2023-09-02T18:08:03.043Z,460.3
2023-09-02T18:09:46.712Z,460
2023-09-02T18:11:30.419Z,458.4
2023-09-02T18:13:14.134Z,459
2023-09-02T18:14:58.117Z,457.9
2023-09-02T18:16:41.528Z,460.7
2023-09-02T18:18:25.237Z,468.2
2023-09-02T18:20:08.952Z,477.8
2023-09-02T18:21:52.654Z,482.8
2023-09-02T18:23:36.362Z,493.5
2023-09-02T18:25:20.081Z,501.5
2023-09-02T18:27:03.844Z,512
2023-09-02T18:28:47.480Z,555.1
2023-09-02T18:30:31.180Z,573.5
2023-09-02T18:32:14.919Z,572.4
2023-09-02T18:33:58.583Z,573.1
2023-09-02T18:35:42.291Z,576.2
2023-09-02T18:37:25.998Z,603.3
2023-09-02T18:39:09.705Z,737.6
2023-09-02T18:40:53.427Z,767.8
2023-09-02T18:42:37.158Z,767.4
2023-09-02T18:44:20.792Z,771
2023-09-02T18:46:04.506Z,775.6
2023-09-02T18:47:48.221Z,769.7
2023-09-02T18:49:31.913Z,703.7
2023-09-02T18:51:15.621Z,687.3
2023-09-02T18:52:59.318Z,686.4
2023-09-02T18:54:43.037Z,684.4
2023-09-02T18:56:26.746Z,682.8
2023-09-02T18:58:10.430Z,684.2
2023-09-02T18:59:54.148Z,686.7
2023-09-02T19:01:37.836Z,692.6
2023-09-02T19:03:21.547Z,705.4
2023-09-02T19:05:05.236Z,715
2023-09-02T19:06:48.953Z,725
2023-09-02T19:08:32.639Z,740.5
2023-09-02T19:10:16.375Z,747
2023-09-02T19:12:00.054Z,748.4
2023-09-02T19:13:43.788Z,752.5
2023-09-02T19:15:27.463Z,758.9
2023-09-02T19:17:11.176Z,768.6
2023-09-02T19:18:54.846Z,776.8
2023-09-02T19:20:38.555Z,781
2023-09-02T19:22:22.270Z,790.1
2023-09-02T19:24:05.979Z,794.3
2023-09-02T19:25:49.672Z,798.7
2023-09-02T19:27:33.370Z,804.8
2023-09-02T19:29:17.076Z,813
2023-09-02T19:31:00.776Z,817.5
2023-09-02T19:32:44.474Z,820.3
2023-09-02T19:34:28.183Z,825.9
2023-09-02T19:36:11.892Z,827.7
2023-09-02T19:37:55.591Z,826
2023-09-02T19:39:39.284Z,826.2
2023-09-02T19:41:22.990Z,826
2023-09-02T19:43:06.701Z,828.2
2023-09-02T19:44:50.389Z,828.9
2023-09-02T19:46:34.098Z,831.6
2023-09-02T19:48:17.801Z,833.9
2023-09-02T19:50:01.502Z,840.3
2023-09-02T19:51:45.206Z,842.8
2023-09-02T19:53:28.963Z,840.8
2023-09-02T19:55:12.601Z,841.2
2023-09-02T19:56:56.329Z,841.6
2023-09-02T19:58:40.003Z,840.5
2023-09-02T20:00:23.689Z,840
2023-09-02T20:02:07.395Z,838.7
2023-09-02T20:03:51.117Z,839
2023-09-02T20:05:34.802Z,841.2
2023-09-02T20:07:18.508Z,841
2023-09-02T20:09:03.742Z,843.5
2023-09-02T20:10:45.901Z,847.1
2023-09-02T20:12:29.613Z,852.1
2023-09-02T20:14:13.322Z,854.6
2023-09-02T20:15:57.016Z,860.3
2023-09-02T20:17:40.835Z,864.6
2023-09-02T20:19:24.434Z,865.7
2023-09-02T20:21:08.123Z,865.7
2023-09-02T20:22:51.839Z,864.7
2023-09-02T20:24:35.518Z,866.1
2023-09-02T20:26:19.242Z,865.8
2023-09-02T20:28:02.925Z,869.8
2023-09-02T20:29:46.638Z,874.6
2023-09-02T20:31:30.339Z,879.5
2023-09-02T20:33:14.035Z,880.1
2023-09-02T20:34:57.769Z,878.9
2023-09-02T20:36:41.466Z,877.7
2023-09-02T20:38:25.204Z,880.7
2023-09-02T20:40:08.844Z,878.8
2023-09-02T20:41:52.524Z,873.6
2023-09-02T20:43:36.229Z,871.7
2023-09-02T20:45:20.007Z,867.7
2023-09-02T20:47:03.641Z,865.1
2023-09-02T20:48:47.347Z,860.7
2023-09-02T20:50:31.040Z,855.1
2023-09-02T20:52:14.759Z,852.1
2023-09-02T20:53:58.486Z,852.2
2023-09-02T20:55:42.137Z,850.8
2023-09-02T20:57:25.840Z,846.9
2023-09-02T20:59:09.541Z,843.5
2023-09-02T21:00:53.260Z,838.4
2023-09-02T21:02:36.962Z,833.8
2023-09-02T21:04:20.653Z,832.4
2023-09-02T21:06:04.366Z,832.3
2023-09-02T21:07:48.054Z,830.2
2023-09-02T21:09:31.746Z,827.9
2023-09-02T21:11:15.459Z,823.7
2023-09-02T21:12:59.162Z,819
2023-09-02T21:14:42.857Z,818.4
2023-09-02T21:16:26.540Z,812.2
2023-09-02T21:18:10.236Z,807.3
2023-09-02T21:19:53.963Z,805.1
2023-09-02T21:21:37.660Z,801.2
2023-09-02T21:23:21.360Z,798.3
2023-09-02T21:25:05.063Z,794.8
2023-09-02T21:26:48.767Z,790.9
2023-09-02T21:28:32.457Z,788.2
2023-09-02T21:30:16.172Z,786.2
2023-09-02T21:31:59.846Z,782
2023-09-02T21:33:43.569Z,778.8
2023-09-02T21:35:27.260Z,778.5
2023-09-02T21:37:11.011Z,779.6
2023-09-02T21:38:54.645Z,776.8
2023-09-02T21:40:38.376Z,771.2
2023-09-02T21:42:22.063Z,769
2023-09-02T21:44:05.762Z,770.4
2023-09-02T21:45:49.461Z,764.6
2023-09-02T21:47:33.176Z,764.6
2023-09-02T21:49:16.867Z,766
2023-09-02T21:51:00.563Z,766.5
2023-09-02T21:52:44.274Z,764.4
2023-09-02T21:54:27.970Z,761.9
2023-09-02T21:56:11.683Z,760.8
2023-09-02T21:57:55.394Z,756.8
2023-09-02T21:59:39.086Z,751.1
2023-09-02T22:01:22.793Z,748.7
2023-09-02T22:03:06.497Z,744.3
2023-09-02T22:04:50.203Z,744.2
2023-09-02T22:06:33.903Z,744.3
2023-09-02T22:08:17.622Z,746.2
2023-09-02T22:10:01.319Z,742.1
2023-09-02T22:11:45.147Z,685.3
2023-09-02T22:13:28.714Z,590.9
2023-09-02T22:15:12.430Z,568.9
2023-09-02T22:16:56.139Z,553.7
2023-09-02T22:18:39.828Z,542.6
2023-09-02T22:20:23.527Z,533.2
2023-09-02T22:22:07.215Z,522.9
2023-09-02T22:23:50.918Z,518.9
2023-09-02T22:25:34.636Z,513.4
2023-09-02T22:27:18.344Z,506.4